Time;durP1;ratioP1;P1;durP2;ratioP2;P2;SDS_P1;SDS_P2;PMS_P1;PMS_P2;Temp;Humidity;BMP_temperature;BMP_pressure;BME280_temperature;BME280_humidity;BME280_pressure;Samples;Min_cycle;Max_cycle;Signal;HPM_P1;HPM_P2
2021/11/27 00:01:12;;;;;;;13.60;5.07;;;;;;;;;;5005281;28;20131;-55
2021/11/27 00:03:41;;;;;;;11.43;5.38;;;;;;;;;;4993202;28;20053;-54
2021/11/27 00:06:08;;;;;;;;;;;;;;;;;;4986514;28;20038;-55
2021/11/27 00:08:35;;;;;;;10.98;5.10;;;;;;;;;;4983062;28;20049;-53
2021/11/27 00:11:02;;;;;;;13.05;6.30;;;;;;;;;;4986550;28;20046;-53
2021/11/27 00:13:28;;;;;;;14.32;6.10;;;;;;;;;;4993984;28;20038;-55
2021/11/27 00:15:56;;;;;;;11.20;5.47;;;;;;;;;;4986445;28;20042;-53
2021/11/27 00:18:26;;;;;;;13.63;6.28;;;;;;;;;;4983478;28;20038;-53
2021/11/27 00:20:54;;;;;;;14.15;6.00;;;;;;;;;;4984847;28;20135;-54
2021/11/27 00:23:21;;;;;;;12.13;6.00;;;;;;;;;;4983759;28;20053;-54
2021/11/27 00:25:48;;;;;;;11.40;5.57;;;;;;;;;;5004295;28;20045;-52
2021/11/27 00:28:14;;;;;;;11.50;5.47;;;;;;;;;;5007583;28;20143;-55
2021/11/27 00:30:41;;;;;;;13.60;6.43;;;;;;;;;;5002545;28;20053;-56
2021/11/27 00:33:09;;;;;;;13.68;6.10;;;;;;;;;;4988698;28;20044;-55
2021/11/27 00:35:36;;;;;;;15.38;6.38;;;;;;;;;;4988090;28;20042;-56
2021/11/27 00:38:06;;;;;;;17.23;7.13;;;;;;;;;;4987367;28;20124;-52
2021/11/27 00:40:33;;;;;;;17.42;6.28;;;;;;;;;;4997592;28;20065;-53
2021/11/27 00:42:59;;;;;;;15.63;6.45;;;;;;;;;;5005910;28;20091;-56
2021/11/27 00:45:27;;;;;;;12.40;5.30;;;;;;;;;;5000605;28;20037;-56
2021/11/27 00:47:56;;;;;;;11.13;5.03;;;;;;;;;;5004406;28;20034;-55
2021/11/27 00:50:26;;;;;;;14.30;4.13;;;;;;;;;;5000176;28;20034;-54
2021/11/27 00:52:52;;;;;;;10.80;4.68;;;;;;;;;;5021428;28;20115;-58
2021/11/27 00:55:19;;;;;;;8.25;3.60;;;;;;;;;;5013867;28;20046;-57
2021/11/27 00:57:47;;;;;;;6.85;2.60;;;;;;;;;;5002744;28;20038;-50
2021/11/27 01:00:15;;;;;;;7.88;2.53;;;;;;;;;;5001795;28;20046;-53
2021/11/27 01:02:41;;;;;;;3.92;1.92;;;;;;;;;;5003932;28;20135;-55
2021/11/27 01:05:09;;;;;;;2.97;1.60;;;;;;;;;;5017003;28;20127;-56
2021/11/27 01:07:38;;;;;;;3.92;1.60;;;;;;;;;;5021439;28;20045;-56
2021/11/27 01:10:06;;;;;;;3.75;1.77;;;;;;;;;;5005558;28;20078;-52
2021/11/27 01:12:33;;;;;;;1.75;1.00;;;;;;;;;;5008609;28;20042;-52
2021/11/27 01:15:00;;;;;;;3.58;1.50;;;;;;;;;;5003727;28;20106;-56
2021/11/27 01:17:27;;;;;;;2.08;0.88;;;;;;;;;;4985517;28;20057;-56
2021/11/27 01:19:53;;;;;;;4.80;0.70;;;;;;;;;;4984900;28;20138;-54
2021/11/27 01:22:21;;;;;;;1.45;0.93;;;;;;;;;;4996049;28;20049;-52
2021/11/27 01:24:50;;;;;;;2.08;0.73;;;;;;;;;;5041484;28;20029;-54
2021/11/27 01:27:17;;;;;;;2.95;1.30;;;;;;;;;;5007361;28;20136;-55
2021/11/27 01:29:44;;;;;;;2.33;1.10;;;;;;;;;;5023075;28;20124;-51
2021/11/27 01:32:12;;;;;;;1.52;0.60;;;;;;;;;;4998419;28;20050;-55
2021/11/27 01:34:40;;;;;;;1.55;0.60;;;;;;;;;;5014131;28;20045;-54
2021/11/27 01:37:10;;;;;;;3.30;0.77;;;;;;;;;;5031682;28;20033;-55
2021/11/27 01:39:36;;;;;;;1.30;0.52;;;;;;;;;;5024528;28;20045;-56
2021/11/27 01:42:05;;;;;;;1.85;0.95;;;;;;;;;;5033665;28;20127;-55
2021/11/27 01:44:31;;;;;;;3.22;0.30;;;;;;;;;;5000688;28;20034;-56
2021/11/27 01:46:59;;;;;;;2.05;0.52;;;;;;;;;;5016959;28;20170;-53
2021/11/27 01:49:26;;;;;;;1.77;0.85;;;;;;;;;;5022546;28;20052;-54
2021/11/27 01:51:53;;;;;;;0.93;0.50;;;;;;;;;;5002758;28;20068;-57
2021/11/27 01:54:20;;;;;;;3.15;0.50;;;;;;;;;;5024500;28;20034;-54
2021/11/27 01:56:49;;;;;;;0.50;0.32;;;;;;;;;;5024358;28;20095;-54
2021/11/27 01:59:17;;;;;;;2.53;0.32;;;;;;;;;;5002635;28;20041;-55
2021/11/27 02:01:45;;;;;;;1.67;0.60;;;;;;;;;;5022968;28;20120;-54
2021/11/27 02:04:12;;;;;;;0.93;0.43;;;;;;;;;;5023152;28;20054;-55
2021/11/27 02:06:39;;;;;;;1.58;0.50;;;;;;;;;;5007507;28;20042;-54
2021/11/27 02:09:08;;;;;;;0.60;0.40;;;;;;;;;;4988115;28;20067;-55
2021/11/27 02:11:36;;;;;;;4.60;0.70;;;;;;;;;;4984887;28;20045;-53
2021/11/27 02:14:04;;;;;;;1.42;0.40;;;;;;;;;;4980984;28;20057;-53
2021/11/27 02:16:32;;;;;;;2.53;0.55;;;;;;;;;;4984836;28;20042;-54
2021/11/27 02:18:58;;;;;;;1.40;0.57;;;;;;;;;;4981572;28;20128;-55
2021/11/27 02:21:26;;;;;;;1.88;0.43;;;;;;;;;;4982855;28;20078;-54
2021/11/27 02:23:53;;;;;;;0.60;0.40;;;;;;;;;;4980947;28;20038;-55
2021/11/27 02:26:21;;;;;;;1.58;0.60;;;;;;;;;;4984509;28;20295;-52
2021/11/27 02:28:52;;;;;;;1.02;0.40;;;;;;;;;;4973423;28;20035;-54
2021/11/27 02:31:19;;;;;;;3.97;0.50;;;;;;;;;;4984307;28;20050;-52
2021/11/27 02:33:45;;;;;;;4.55;0.65;;;;;;;;;;4982214;28;20793;-57
2021/11/27 02:36:12;;;;;;;3.63;0.80;;;;;;;;;;4983707;28;20034;-55
2021/11/27 02:38:40;;;;;;;3.80;0.60;;;;;;;;;;4981437;28;20042;-53
2021/11/27 02:41:07;;;;;;;1.80;0.68;;;;;;;;;;4966247;28;20519;-55
2021/11/27 02:43:33;;;;;;;1.00;0.60;;;;;;;;;;4965188;28;20039;-54
2021/11/27 02:46:03;;;;;;;3.22;0.57;;;;;;;;;;4977756;28;20357;-51
2021/11/27 02:48:30;;;;;;;1.95;0.63;;;;;;;;;;4984760;28;20042;-54
2021/11/27 02:50:57;;;;;;;1.95;0.80;;;;;;;;;;4980148;28;20034;-52
2021/11/27 02:53:23;;;;;;;3.28;0.63;;;;;;;;;;4983161;28;20057;-55
2021/11/27 02:55:51;;;;;;;3.00;0.63;;;;;;;;;;4979418;28;20050;-53
2021/11/27 02:58:18;;;;;;;1.10;0.40;;;;;;;;;;4983209;28;20050;-57
2021/11/27 03:00:46;;;;;;;4.03;0.50;;;;;;;;;;4982773;28;20160;-52
2021/11/27 03:03:13;;;;;;;2.75;0.40;;;;;;;;;;4982718;28;20117;-51
2021/11/27 03:05:39;;;;;;;3.40;0.57;;;;;;;;;;4978612;28;20046;-55
2021/11/27 03:08:07;;;;;;;1.52;0.35;;;;;;;;;;4982529;28;20049;-55
2021/11/27 03:10:33;;;;;;;1.27;0.40;;;;;;;;;;4973941;28;20046;-51
2021/11/27 03:13:01;;;;;;;0.65;0.40;;;;;;;;;;4981482;28;20041;-53
2021/11/27 03:15:28;;;;;;;0.20;0.20;;;;;;;;;;4976388;28;20058;-53
2021/11/27 03:17:54;;;;;;;0.77;0.40;;;;;;;;;;4981357;28;20058;-57
2021/11/27 03:20:21;;;;;;;4.60;0.40;;;;;;;;;;4978501;28;20050;-52
2021/11/27 03:22:48;;;;;;;0.60;0.50;;;;;;;;;;4984259;28;20102;-56
2021/11/27 03:25:15;;;;;;;0.85;0.30;;;;;;;;;;5001124;28;20062;-54
2021/11/27 03:27:42;;;;;;;0.63;0.40;;;;;;;;;;4965211;28;20121;-55
2021/11/27 03:30:13;;;;;;;1.25;0.30;;;;;;;;;;4969939;28;20034;-56
2021/11/27 03:32:40;;;;;;;0.60;0.28;;;;;;;;;;4979955;28;20046;-56
2021/11/27 03:35:07;;;;;;;1.83;0.40;;;;;;;;;;5006602;28;20045;-59
2021/11/27 03:37:33;;;;;;;1.35;0.20;;;;;;;;;;5019705;28;20322;-55
2021/11/27 03:40:00;;;;;;;2.00;0.68;;;;;;;;;;5001911;28;20050;-54
2021/11/27 03:42:26;;;;;;;2.72;0.98;;;;;;;;;;4986892;28;20042;-52
2021/11/27 03:44:53;;;;;;;1.25;0.73;;;;;;;;;;4985447;28;20046;-55
2021/11/27 03:47:23;;;;;;;2.63;1.00;;;;;;;;;;4983523;28;20054;-52
2021/11/27 03:49:51;;;;;;;3.63;0.70;;;;;;;;;;4986505;28;20042;-54
2021/11/27 03:52:18;;;;;;;1.65;0.35;;;;;;;;;;4980163;28;20057;-53
2021/11/27 03:54:44;;;;;;;1.10;0.50;;;;;;;;;;4987010;28;20124;-56
2021/11/27 03:57:12;;;;;;;0.40;0.30;;;;;;;;;;4986316;28;20046;-54
2021/11/27 03:59:38;;;;;;;1.38;0.50;;;;;;;;;;5022451;28;20041;-56
2021/11/27 04:02:05;;;;;;;2.22;0.40;;;;;;;;;;5000187;28;20052;-55
2021/11/27 04:04:34;;;;;;;0.52;0.20;;;;;;;;;;5017090;28;20049;-51
2021/11/27 04:07:01;;;;;;;0.85;0.30;;;;;;;;;;5022917;28;20041;-55
2021/11/27 04:09:27;;;;;;;0.93;0.30;;;;;;;;;;5001144;28;20050;-52
2021/11/27 04:11:54;;;;;;;1.05;0.40;;;;;;;;;;4989972;28;20062;-56
2021/11/27 04:14:21;;;;;;;6.15;0.60;;;;;;;;;;5017997;28;20034;-57
2021/11/27 04:16:47;;;;;;;0.43;0.30;;;;;;;;;;5024747;28;20055;-53
2021/11/27 04:19:13;;;;;;;0.93;0.40;;;;;;;;;;5011076;28;20110;-49
2021/11/27 04:21:41;;;;;;;1.60;0.38;;;;;;;;;;5002403;28;20046;-52
2021/11/27 04:24:08;;;;;;;2.20;0.50;;;;;;;;;;5003549;28;20046;-56
2021/11/27 04:26:34;;;;;;;2.15;0.50;;;;;;;;;;5007255;28;20038;-55
2021/11/27 04:29:01;;;;;;;0.95;0.22;;;;;;;;;;5018146;28;20176;-54
2021/11/27 04:31:28;;;;;;;0.63;0.28;;;;;;;;;;5021854;28;20127;-56
2021/11/27 04:33:54;;;;;;;1.40;0.40;;;;;;;;;;5009646;28;20050;-52
2021/11/27 04:36:21;;;;;;;3.25;0.40;;;;;;;;;;4986416;28;20124;-52
2021/11/27 04:38:49;;;;;;;1.10;0.28;;;;;;;;;;4984027;28;20046;-50
2021/11/27 04:41:16;;;;;;;1.20;0.20;;;;;;;;;;4985432;28;20038;-53
2021/11/27 04:43:42;;;;;;;2.05;0.20;;;;;;;;;;5002666;28;20042;-52
2021/11/27 04:46:09;;;;;;;1.73;0.30;;;;;;;;;;5004672;28;20123;-53
2021/11/27 04:48:36;;;;;;;0.15;0.10;;;;;;;;;;5006429;28;20037;-52
2021/11/27 04:51:03;;;;;;;1.00;0.30;;;;;;;;;;5021352;28;20033;-54
2021/11/27 04:53:30;;;;;;;1.23;0.25;;;;;;;;;;5044013;28;20037;-51
2021/11/27 04:55:59;;;;;;;0.50;0.30;;;;;;;;;;5007358;28;20120;-56
2021/11/27 04:58:28;;;;;;;1.05;0.30;;;;;;;;;;5007246;28;20049;-58
2021/11/27 05:00:55;;;;;;;0.88;0.32;;;;;;;;;;5016732;28;20038;-54
2021/11/27 05:03:22;;;;;;;0.50;0.30;;;;;;;;;;5037717;28;20049;-49
2021/11/27 05:05:48;;;;;;;1.35;0.17;;;;;;;;;;5007000;28;20050;-56
2021/11/27 05:08:15;;;;;;;0.95;0.30;;;;;;;;;;5005959;28;20052;-52
2021/11/27 05:10:42;;;;;;;0.10;0.10;;;;;;;;;;4999584;28;20058;-57
2021/11/27 05:13:10;;;;;;;0.20;0.20;;;;;;;;;;4998932;28;20056;-56
2021/11/27 05:15:37;;;;;;;0.20;0.20;;;;;;;;;;5001810;28;20026;-52
2021/11/27 05:18:03;;;;;;;1.85;0.20;;;;;;;;;;5003688;28;20345;-53
2021/11/27 05:20:30;;;;;;;1.50;0.25;;;;;;;;;;5000807;28;20054;-56
2021/11/27 05:22:57;;;;;;;0.30;0.28;;;;;;;;;;5004751;28;20089;-51
2021/11/27 05:25:23;;;;;;;0.82;0.20;;;;;;;;;;5002324;28;20058;-53
2021/11/27 05:27:50;;;;;;;2.72;0.30;;;;;;;;;;5001926;28;20050;-53
2021/11/27 05:30:18;;;;;;;1.80;0.70;;;;;;;;;;4998529;28;20048;-53
2021/11/27 05:35:37;;;;;;;0.52;0.30;;;;;;;;;;4952351;28;20048;-54
2021/11/27 05:38:06;;;;;;;1.90;0.43;;;;;;;;;;5004364;28;20037;-51
2021/11/27 05:40:33;;;;;;;0.45;0.28;;;;;;;;;;5004117;28;20046;-51
2021/11/27 05:42:59;;;;;;;0.25;0.20;;;;;;;;;;5019864;28;20831;-49
2021/11/27 05:45:29;;;;;;;0.85;0.28;;;;;;;;;;5025410;28;20034;-54
2021/11/27 05:47:56;;;;;;;1.05;0.30;;;;;;;;;;4991927;28;20038;-55
2021/11/27 05:50:22;;;;;;;3.97;0.30;;;;;;;;;;5023386;28;20065;-51
2021/11/27 05:52:50;;;;;;;0.93;0.45;;;;;;;;;;5022828;28;20046;-56
2021/11/27 05:55:17;;;;;;;6.77;2.30;;;;;;;;;;5006113;28;20049;-55
2021/11/27 05:57:45;;;;;;;3.10;1.27;;;;;;;;;;5012943;28;20301;-56
2021/11/27 06:00:12;;;;;;;1.38;0.60;;;;;;;;;;5023166;28;20030;-53
2021/11/27 06:02:40;;;;;;;2.92;0.38;;;;;;;;;;5004729;28;20285;-54
2021/11/27 06:05:07;;;;;;;0.68;0.20;;;;;;;;;;5017546;28;20041;-53
2021/11/27 06:07:35;;;;;;;0.95;0.43;;;;;;;;;;5012362;28;20060;-56
2021/11/27 06:10:01;;;;;;;0.77;0.40;;;;;;;;;;5006004;28;20064;-55
2021/11/27 06:12:28;;;;;;;0.73;0.30;;;;;;;;;;5010860;28;20049;-54
2021/11/27 06:14:54;;;;;;;1.88;0.45;;;;;;;;;;5019009;28;20030;-55
2021/11/27 06:17:23;;;;;;;2.42;0.45;;;;;;;;;;5007447;28;20043;-51
2021/11/27 06:19:52;;;;;;;0.68;0.45;;;;;;;;;;5017204;28;20052;-57
2021/11/27 06:22:21;;;;;;;3.63;1.48;;;;;;;;;;5010364;28;20045;-58
2021/11/27 06:24:47;;;;;;;1.77;0.63;;;;;;;;;;5012475;28;20054;-55
2021/11/27 06:27:16;;;;;;;0.50;0.30;;;;;;;;;;5010153;28;20519;-54
2021/11/27 06:29:42;;;;;;;0.30;0.30;;;;;;;;;;5018261;28;20112;-55
2021/11/27 06:32:11;;;;;;;0.85;0.30;;;;;;;;;;5015298;28;20037;-54
2021/11/27 06:34:38;;;;;;;0.55;0.22;;;;;;;;;;5003561;28;20034;-54
2021/11/27 06:37:07;;;;;;;0.52;0.40;;;;;;;;;;5023630;28;20038;-56
2021/11/27 06:39:35;;;;;;;1.15;0.50;;;;;;;;;;5012118;28;20130;-52
2021/11/27 06:42:02;;;;;;;5.65;1.83;;;;;;;;;;5023281;28;20122;-55
2021/11/27 06:44:28;;;;;;;2.38;0.90;;;;;;;;;;5008704;28;20053;-50
2021/11/27 06:46:55;;;;;;;1.05;0.52;;;;;;;;;;5004489;28;20056;-54
2021/11/27 06:49:21;;;;;;;1.02;0.50;;;;;;;;;;5016196;28;20049;-53
2021/11/27 06:51:48;;;;;;;0.40;0.40;;;;;;;;;;5003191;28;20034;-49
2021/11/27 06:54:16;;;;;;;2.25;0.60;;;;;;;;;;4999450;28;20048;-57
2021/11/27 06:56:42;;;;;;;0.90;0.40;;;;;;;;;;5003475;28;20061;-53
2021/11/27 06:59:08;;;;;;;1.92;0.57;;;;;;;;;;5016392;28;20060;-53
2021/11/27 07:01:35;;;;;;;1.50;0.55;;;;;;;;;;5037653;28;20087;-56
2021/11/27 07:04:01;;;;;;;0.90;0.50;;;;;;;;;;5010403;28;20049;-52
2021/11/27 07:06:28;;;;;;;2.30;1.17;;;;;;;;;;4985141;28;20046;-53
2021/11/27 07:08:54;;;;;;;0.47;0.47;;;;;;;;;;4987000;28;20516;-55
2021/11/27 07:11:22;;;;;;;0.70;0.50;;;;;;;;;;4985371;28;20161;-55
2021/11/27 07:13:49;;;;;;;0.60;0.60;;;;;;;;;;4987685;28;20066;-56
2021/11/27 07:16:15;;;;;;;0.55;0.50;;;;;;;;;;5014803;28;20599;-54
2021/11/27 07:18:42;;;;;;;1.55;0.80;;;;;;;;;;5006712;28;20153;-56
2021/11/27 07:21:11;;;;;;;3.65;0.88;;;;;;;;;;5002039;28;20034;-57
2021/11/27 07:23:38;;;;;;;;;;;;;;;;;;5007422;28;20037;-51
2021/11/27 07:26:05;;;;;;;1.15;0.50;;;;;;;;;;5006914;28;19925;-56
2021/11/27 07:28:33;;;;;;;1.95;0.60;;;;;;;;;;4986054;28;20038;-56
2021/11/27 07:30:59;;;;;;;0.93;0.70;;;;;;;;;;4983437;28;20045;-56
2021/11/27 07:33:26;;;;;;;3.88;0.80;;;;;;;;;;4992954;28;20081;-55
2021/11/27 07:35:52;;;;;;;1.67;0.60;;;;;;;;;;4997233;28;20120;-55
2021/11/27 07:38:19;;;;;;;1.15;0.70;;;;;;;;;;4987460;28;20121;-57
2021/11/27 07:40:46;;;;;;;2.88;0.82;;;;;;;;;;4996642;28;20077;-57
2021/11/27 07:43:12;;;;;;;1.45;0.80;;;;;;;;;;4988163;28;20062;-53
2021/11/27 07:45:40;;;;;;;1.63;0.90;;;;;;;;;;4984600;28;20053;-55
2021/11/27 07:48:07;;;;;;;4.15;0.95;;;;;;;;;;4988242;28;20034;-53
2021/11/27 07:50:34;;;;;;;1.25;0.85;;;;;;;;;;4987544;28;20066;-55
2021/11/27 07:53:01;;;;;;;1.77;0.68;;;;;;;;;;4982450;28;20034;-56
2021/11/27 07:55:30;;;;;;;1.45;0.60;;;;;;;;;;5004000;28;20128;-52
2021/11/27 07:57:57;;;;;;;3.17;0.70;;;;;;;;;;4998637;28;20049;-53
2021/11/27 08:00:24;;;;;;;0.70;0.50;;;;;;;;;;5011087;28;20065;-56
2021/11/27 08:02:52;;;;;;;1.45;0.50;;;;;;;;;;4991794;28;20056;-54
2021/11/27 08:05:19;;;;;;;0.93;0.60;;;;;;;;;;5004341;28;20045;-55
2021/11/27 08:07:45;;;;;;;1.20;0.70;;;;;;;;;;4986659;28;20031;-53
2021/11/27 08:10:13;;;;;;;2.75;0.75;;;;;;;;;;4981494;28;20054;-55
2021/11/27 08:12:39;;;;;;;0.70;0.50;;;;;;;;;;4977530;28;20092;-49
2021/11/27 08:15:06;;;;;;;1.67;0.88;;;;;;;;;;4983280;28;20146;-52
2021/11/27 08:17:35;;;;;;;1.38;0.52;;;;;;;;;;4978574;28;20043;-55
2021/11/27 08:20:04;;;;;;;3.35;0.90;;;;;;;;;;4981557;28;20049;-54
2021/11/27 08:22:30;;;;;;;4.45;0.90;;;;;;;;;;4981258;28;20050;-53
2021/11/27 08:24:57;;;;;;;1.40;0.90;;;;;;;;;;4986928;28;20030;-56
2021/11/27 08:27:27;;;;;;;1.33;0.70;;;;;;;;;;4981668;28;20071;-51
2021/11/27 08:29:53;;;;;;;1.52;0.70;;;;;;;;;;4984538;28;20042;-52
2021/11/27 08:32:20;;;;;;;1.00;0.70;;;;;;;;;;4985670;28;20034;-53
2021/11/27 08:34:46;;;;;;;1.08;0.60;;;;;;;;;;4978038;28;20117;-53
2021/11/27 08:37:15;;;;;;;1.25;0.70;;;;;;;;;;4986830;28;20050;-51
2021/11/27 08:39:42;;;;;;;1.55;0.77;;;;;;;;;;4980543;28;20050;-53
2021/11/27 08:42:09;;;;;;;2.30;0.85;;;;;;;;;;4985957;28;20136;-52
2021/11/27 08:44:35;;;;;;;2.05;1.10;;;;;;;;;;4974998;28;20066;-51
2021/11/27 08:47:02;;;;;;;1.42;0.90;;;;;;;;;;4985292;28;20046;-50
2021/11/27 08:49:28;;;;;;;1.38;0.70;;;;;;;;;;4992825;28;20041;-53
2021/11/27 08:51:55;;;;;;;2.47;1.17;;;;;;;;;;5005266;28;20057;-54
2021/11/27 08:54:23;;;;;;;3.65;0.90;;;;;;;;;;4981908;28;20129;-49
2021/11/27 08:56:49;;;;;;;1.23;0.88;;;;;;;;;;4967274;28;20043;-56
2021/11/27 08:59:16;;;;;;;2.60;0.73;;;;;;;;;;4969305;28;20034;-56
2021/11/27 09:01:43;;;;;;;2.33;1.00;;;;;;;;;;5003728;28;20054;-56
2021/11/27 09:04:10;;;;;;;1.42;0.70;;;;;;;;;;4994665;28;20127;-52
2021/11/27 09:06:36;;;;;;;0.80;0.68;;;;;;;;;;5005532;28;20034;-54
2021/11/27 09:09:05;;;;;;;1.40;0.60;;;;;;;;;;5021057;28;20045;-53
2021/11/27 09:11:33;;;;;;;2.97;0.68;;;;;;;;;;5005073;28;20038;-51
2021/11/27 09:14:00;;;;;;;2.45;0.73;;;;;;;;;;5002708;28;20041;-55
2021/11/27 09:16:27;;;;;;;1.13;0.60;;;;;;;;;;5002056;28;20042;-50
2021/11/27 09:18:56;;;;;;;0.73;0.52;;;;;;;;;;4993863;28;20052;-51
2021/11/27 09:21:22;;;;;;;2.63;0.85;;;;;;;;;;4967985;28;20058;-52
2021/11/27 09:23:49;;;;;;;2.30;0.93;;;;;;;;;;4965747;28;20168;-49
2021/11/27 09:26:16;;;;;;;6.32;0.80;;;;;;;;;;4991337;28;20034;-52
2021/11/27 09:28:46;;;;;;;1.77;0.80;;;;;;;;;;5005390;28;20123;-56
2021/11/27 09:31:12;;;;;;;1.83;0.73;;;;;;;;;;4990284;28;20043;-55
2021/11/27 09:33:39;;;;;;;1.23;0.60;;;;;;;;;;4973418;28;20057;-55
2021/11/27 09:36:07;;;;;;;3.38;0.63;;;;;;;;;;4991047;28;20108;-53
2021/11/27 09:38:34;;;;;;;1.85;0.88;;;;;;;;;;5004728;28;20042;-56
2021/11/27 09:41:10;;;;;;;1.60;0.77;;;;;;;;;;5017288;28;20136;-52
2021/11/27 09:43:36;;;;;;;1.42;0.70;;;;;;;;;;5004310;28;20041;-52
2021/11/27 09:46:06;;;;;;;1.88;0.80;;;;;;;;;;5001058;28;20042;-54
2021/11/27 09:48:36;;;;;;;3.15;0.90;;;;;;;;;;5020112;28;20053;-54
2021/11/27 09:51:02;;;;;;;1.02;0.70;;;;;;;;;;4999955;28;20046;-53
2021/11/27 09:53:29;;;;;;;1.25;0.47;;;;;;;;;;5003695;28;20037;-53
2021/11/27 09:55:56;;;;;;;1.38;0.60;;;;;;;;;;5001185;28;20073;-55
2021/11/27 09:58:26;;;;;;;3.08;0.80;;;;;;;;;;5004740;28;20029;-54
2021/11/27 10:00:53;;;;;;;2.97;0.60;;;;;;;;;;5001517;28;20042;-53
2021/11/27 10:03:21;;;;;;;1.63;0.80;;;;;;;;;;4963530;28;20155;-51
2021/11/27 10:05:48;;;;;;;2.40;0.80;;;;;;;;;;4978742;28;20053;-53
2021/11/27 10:08:15;;;;;;;2.08;0.77;;;;;;;;;;4968256;28;20053;-53
2021/11/27 10:10:41;;;;;;;2.17;0.73;;;;;;;;;;4984367;28;20414;-56
2021/11/27 10:13:08;;;;;;;3.00;0.85;;;;;;;;;;4979942;28;20150;-53
2021/11/27 10:15:34;;;;;;;5.78;1.00;;;;;;;;;;5001456;28;20061;-56
2021/11/27 10:18:13;;;;;;;1.80;0.80;;;;;;;;;;4979982;28;20038;-55
2021/11/27 10:20:41;;;;;;;1.52;0.77;;;;;;;;;;4983304;28;20034;-56
2021/11/27 10:23:07;;;;;;;1.90;0.73;;;;;;;;;;4995998;28;20070;-56
2021/11/27 10:25:35;;;;;;;2.80;1.08;;;;;;;;;;4983873;28;20072;-53
2021/11/27 10:28:04;;;;;;;4.28;1.30;;;;;;;;;;4980097;28;20034;-54
2021/11/27 10:30:35;;;;;;;3.10;1.38;;;;;;;;;;4985865;28;20034;-54
2021/11/27 10:33:03;;;;;;;9.20;1.40;;;;;;;;;;4978628;28;20042;-52
2021/11/27 10:35:29;;;;;;;4.57;1.33;;;;;;;;;;4986047;28;20074;-56
2021/11/27 10:37:58;;;;;;;2.30;1.02;;;;;;;;;;4995056;28;20046;-54
2021/11/27 10:40:25;;;;;;;2.72;1.33;;;;;;;;;;4983789;28;20053;-55
2021/11/27 10:42:53;;;;;;;7.90;1.70;;;;;;;;;;4981265;28;20046;-55
2021/11/27 10:45:21;;;;;;;10.00;2.70;;;;;;;;;;5004546;28;20078;-56
2021/11/27 10:47:48;;;;;;;6.80;2.25;;;;;;;;;;4999530;28;20433;-52
2021/11/27 10:50:19;;;;;;;8.05;3.00;;;;;;;;;;5004060;28;20123;-55
2021/11/27 10:52:48;;;;;;;7.47;2.53;;;;;;;;;;5002263;28;20049;-54
2021/11/27 10:55:17;;;;;;;9.15;3.08;;;;;;;;;;4982909;28;20061;-50
2021/11/27 10:57:44;;;;;;;6.65;2.20;;;;;;;;;;5001434;28;20042;-53
2021/11/27 11:00:12;;;;;;;9.68;2.60;;;;;;;;;;4996987;28;20042;-53
2021/11/27 11:02:39;;;;;;;6.75;2.67;;;;;;;;;;5003405;28;20042;-53
2021/11/27 11:05:07;;;;;;;7.18;2.28;;;;;;;;;;4985563;28;20149;-53
2021/11/27 11:07:34;;;;;;;9.48;3.08;;;;;;;;;;5003363;28;20050;-53
2021/11/27 11:10:13;;;;;;;14.63;5.38;;;;;;;;;;4984384;28;20051;-54
2021/11/27 11:12:39;;;;;;;;;;;;;;;;;;4983629;28;20061;-53
2021/11/27 11:15:12;;;;;;;13.25;4.63;;;;;;;;;;4977635;28;20007;-52
2021/11/27 11:17:39;;;;;;;11.73;3.60;;;;;;;;;;4982724;28;20049;-55
2021/11/27 11:20:12;;;;;;;17.60;6.05;;;;;;;;;;4977619;28;20137;-54
2021/11/27 11:22:40;;;;;;;10.13;2.88;;;;;;;;;;4983435;28;20038;-51
2021/11/27 11:25:07;;;;;;;15.95;5.00;;;;;;;;;;4980180;28;20049;-52
2021/11/27 11:27:36;;;;;;;23.08;8.45;;;;;;;;;;4984876;28;20049;-54
2021/11/27 11:30:05;;;;;;;21.48;7.32;;;;;;;;;;4992978;28;20058;-54
2021/11/27 11:32:31;;;;;;;;;;;;;;;;;;4980855;28;20046;-54
2021/11/27 11:35:01;;;;;;;19.90;6.35;;;;;;;;;;5010783;28;19978;-54
2021/11/27 11:37:29;;;;;;;12.13;4.35;;;;;;;;;;5002638;28;20041;-52
2021/11/27 11:39:56;;;;;;;20.75;7.53;;;;;;;;;;4988260;28;20035;-57
2021/11/27 11:42:25;;;;;;;23.40;7.88;;;;;;;;;;4983709;28;20031;-53
2021/11/27 11:44:52;;;;;;;20.42;6.10;;;;;;;;;;4979973;28;20048;-57
2021/11/27 11:47:21;;;;;;;16.83;6.43;;;;;;;;;;4981696;28;20042;-52
2021/11/27 11:49:52;;;;;;;16.17;4.97;;;;;;;;;;4982868;28;20042;-52
2021/11/27 11:52:25;;;;;;;25.55;6.50;;;;;;;;;;4978271;28;20038;-51
2021/11/27 11:54:52;;;;;;;23.23;6.60;;;;;;;;;;4985996;28;20034;-51
2021/11/27 11:57:40;;;;;;;21.38;6.43;;;;;;;;;;4983909;28;20030;-53
2021/11/27 12:00:07;;;;;;;;;;;;;;;;;;4987101;28;20042;-48
2021/11/27 12:02:34;;;;;;;15.13;4.78;;;;;;;;;;4980899;28;19921;-52
2021/11/27 12:05:08;;;;;;;19.73;6.32;;;;;;;;;;4995642;28;20048;-49
2021/11/27 12:07:57;;;;;;;19.90;5.68;;;;;;;;;;4987329;28;20052;-54
2021/11/27 12:10:25;;;;;;;20.33;5.93;;;;;;;;;;4985342;28;20057;-53
2021/11/27 12:13:11;;;;;;;18.08;6.20;;;;;;;;;;4993703;28;20045;-54
2021/11/27 12:15:38;;;;;;;27.00;7.88;;;;;;;;;;5002303;28;20053;-57
2021/11/27 12:18:06;;;;;;;15.35;5.07;;;;;;;;;;4983437;28;20065;-52
2021/11/27 12:20:43;;;;;;;18.10;5.90;;;;;;;;;;4992947;28;20030;-56
2021/11/27 12:23:29;;;;;;;12.10;4.63;;;;;;;;;;5000683;28;20041;-55
2021/11/27 12:26:10;;;;;;;17.40;5.20;;;;;;;;;;5021309;28;20046;-54
2021/11/27 12:28:40;;;;;;;23.08;6.28;;;;;;;;;;4984415;28;20115;-52
2021/11/27 12:31:07;;;;;;;20.27;5.10;;;;;;;;;;4982221;28;20073;-56
2021/11/27 12:33:47;;;;;;;26.38;7.20;;;;;;;;;;4988569;28;20048;-54
2021/11/27 12:36:35;;;;;;;19.80;6.25;;;;;;;;;;5003761;28;20064;-52
2021/11/27 12:39:04;;;;;;;17.52;5.80;;;;;;;;;;4987895;28;20081;-56
2021/11/27 12:41:32;;;;;;;16.30;5.95;;;;;;;;;;4986329;28;20046;-54
2021/11/27 12:44:19;;;;;;;23.13;6.28;;;;;;;;;;5013949;28;20045;-51
2021/11/27 12:46:47;;;;;;;20.43;5.67;;;;;;;;;;5004755;28;20045;-54
2021/11/27 12:49:32;;;;;;;14.07;5.63;;;;;;;;;;4970220;28;20324;-52
2021/11/27 12:52:14;;;;;;;22.02;6.63;;;;;;;;;;5003628;28;20042;-56
2021/11/27 12:54:41;;;;;;;19.23;5.80;;;;;;;;;;4982184;28;20088;-54
2021/11/27 12:57:12;;;;;;;18.00;5.75;;;;;;;;;;4985316;28;20062;-55
2021/11/27 12:59:44;;;;;;;14.60;5.10;;;;;;;;;;4996584;28;20123;-54
2021/11/27 13:02:12;;;;;;;20.98;5.75;;;;;;;;;;5004150;28;20044;-55
2021/11/27 13:04:38;;;;;;;17.25;5.40;;;;;;;;;;5000061;28;20037;-55
2021/11/27 13:07:06;;;;;;;14.68;4.43;;;;;;;;;;5004229;28;20127;-52
2021/11/27 13:09:32;;;;;;;23.77;4.80;;;;;;;;;;5001177;28;20033;-55
2021/11/27 13:12:00;;;;;;;13.18;3.63;;;;;;;;;;5005343;28;20152;-54
2021/11/27 13:14:27;;;;;;;12.77;3.47;;;;;;;;;;5002492;28;20030;-51
2021/11/27 13:17:03;;;;;;;11.50;3.78;;;;;;;;;;5004626;28;20042;-50
2021/11/27 13:19:30;;;;;;;10.65;3.58;;;;;;;;;;4992125;28;20049;-51
2021/11/27 13:22:03;;;;;;;19.50;4.07;;;;;;;;;;4987652;28;20042;-54
2021/11/27 13:24:29;;;;;;;12.82;5.00;;;;;;;;;;4983493;28;20116;-50
2021/11/27 13:26:58;;;;;;;12.73;3.72;;;;;;;;;;5003492;28;20061;-52
2021/11/27 13:29:24;;;;;;;;;;;;;;;;;;4986990;28;20037;-52
2021/11/27 13:31:52;;;;;;;8.07;2.83;;;;;;;;;;5020793;28;21219;-56
2021/11/27 13:34:21;;;;;;;10.88;3.63;;;;;;;;;;5000374;28;20060;-53
2021/11/27 13:36:47;;;;;;;;;;;;;;;;;;5006072;28;20045;-51
2021/11/27 13:39:15;;;;;;;9.65;3.13;;;;;;;;;;5003148;28;19952;-50
2021/11/27 13:41:42;;;;;;;11.40;4.35;;;;;;;;;;5001707;28;20045;-52
2021/11/27 13:44:09;;;;;;;20.25;5.35;;;;;;;;;;5020644;28;20046;-55
2021/11/27 13:46:47;;;;;;;14.48;5.72;;;;;;;;;;5000093;28;20049;-51
2021/11/27 13:49:14;;;;;;;12.18;4.53;;;;;;;;;;5004965;28;20038;-51
2021/11/27 13:51:43;;;;;;;15.23;4.53;;;;;;;;;;4999059;28;20057;-54
2021/11/27 13:54:12;;;;;;;;;;;;;;;;;;5022403;28;20046;-51
2021/11/27 13:56:39;;;;;;;16.58;5.13;;;;;;;;;;5016221;28;19979;-55
2021/11/27 13:59:05;;;;;;;12.98;5.32;;;;;;;;;;5004089;28;20042;-53
2021/11/27 14:01:32;;;;;;;15.80;6.95;;;;;;;;;;4989903;28;20057;-56
2021/11/27 14:03:58;;;;;;;13.55;5.30;;;;;;;;;;4999591;28;20128;-54
2021/11/27 14:06:25;;;;;;;21.38;7.80;;;;;;;;;;4991393;28;20156;-56
2021/11/27 14:09:03;;;;;;;20.63;8.02;;;;;;;;;;5004715;28;20052;-51
2021/11/27 14:11:33;;;;;;;17.50;7.18;;;;;;;;;;4998408;28;20033;-51
2021/11/27 14:14:03;;;;;;;22.52;8.00;;;;;;;;;;5003895;28;20061;-53
2021/11/27 14:16:29;;;;;;;20.67;7.28;;;;;;;;;;5000934;28;20033;-54
2021/11/27 14:19:12;;;;;;;20.30;8.48;;;;;;;;;;5004358;28;20060;-55
2021/11/27 14:21:39;;;;;;;17.02;6.90;;;;;;;;;;4993621;28;20100;-54
2021/11/27 14:24:14;;;;;;;19.42;6.90;;;;;;;;;;4984200;28;20540;-56
2021/11/27 14:26:42;;;;;;;13.55;6.45;;;;;;;;;;4983603;28;20049;-55
2021/11/27 14:29:15;;;;;;;19.67;7.20;;;;;;;;;;5020437;28;20042;-57
2021/11/27 14:31:41;;;;;;;15.65;7.47;;;;;;;;;;5014004;28;20053;-57
2021/11/27 14:34:09;;;;;;;16.27;6.68;;;;;;;;;;4996839;28;20115;-54
2021/11/27 14:36:37;;;;;;;18.50;6.57;;;;;;;;;;5000960;28;20041;-52
2021/11/27 14:39:04;;;;;;;26.38;8.02;;;;;;;;;;4983568;28;20058;-53
2021/11/27 14:41:33;;;;;;;22.45;8.07;;;;;;;;;;5001366;28;20128;-54
2021/11/27 14:44:05;;;;;;;11.00;5.38;;;;;;;;;;5018164;28;20037;-53
2021/11/27 14:46:36;;;;;;;22.42;9.73;;;;;;;;;;5004786;28;20034;-54
2021/11/27 14:49:22;;;;;;;11.48;5.05;;;;;;;;;;5000438;28;20061;-51